createdAt,value
2019-05-25T00:00:05.359Z,73.30
2019-05-25T00:00:41.516Z,72.60
2019-05-25T00:01:16.801Z,72.70
2019-05-25T00:01:52.241Z,73.80
2019-05-25T00:02:27.871Z,73.00
2019-05-25T00:03:03.500Z,73.00
2019-05-25T00:03:38.982Z,73.00
2019-05-25T00:04:14.955Z,73.20
2019-05-25T00:04:50.210Z,73.30
2019-05-25T00:05:25.910Z,73.30
2019-05-25T00:06:01.621Z,73.40
2019-05-25T00:06:37.010Z,73.50
2019-05-25T00:07:12.878Z,73.60
2019-05-25T00:07:48.545Z,73.70
2019-05-25T00:08:23.763Z,73.90
2019-05-25T00:08:59.199Z,73.90
2019-05-25T00:09:34.834Z,74.00
2019-05-25T00:10:10.349Z,74.10
2019-05-25T00:10:45.795Z,74.10
2019-05-25T00:11:21.417Z,74.20
2019-05-25T00:11:56.691Z,74.30
2019-05-25T00:12:32.609Z,74.40
2019-05-25T00:13:08.251Z,74.50
2019-05-25T00:13:43.470Z,74.60
2019-05-25T00:14:18.911Z,74.60
2019-05-25T00:14:54.526Z,74.80
2019-05-25T00:15:29.744Z,74.80
2019-05-25T00:16:05.175Z,75.00
2019-05-25T00:16:40.791Z,75.00
2019-05-25T00:17:16.361Z,75.10
2019-05-25T00:17:52.050Z,75.20
2019-05-25T00:18:27.671Z,75.30
2019-05-25T00:19:02.987Z,75.40
2019-05-25T00:19:38.466Z,75.50
2019-05-25T00:20:14.111Z,75.50
2019-05-25T00:20:49.386Z,75.60
2019-05-25T00:21:24.845Z,75.60
2019-05-25T00:22:00.696Z,75.70
2019-05-25T00:22:35.916Z,75.80
2019-05-25T00:23:11.358Z,76.00
2019-05-25T00:23:46.952Z,76.10
2019-05-25T00:24:22.190Z,76.20
2019-05-25T00:24:57.645Z,76.20
2019-05-25T00:25:33.265Z,76.40
2019-05-25T00:26:09.549Z,76.40
2019-05-25T00:26:45.277Z,76.60
2019-05-25T00:27:20.889Z,76.70
2019-05-25T00:27:56.109Z,76.80
2019-05-25T00:28:31.610Z,77.00
2019-05-25T00:29:07.260Z,77.10
2019-05-25T00:29:42.479Z,77.20
2019-05-25T00:30:18.000Z,77.30
2019-05-25T00:30:53.883Z,77.90
2019-05-25T00:31:29.188Z,77.50
2019-05-25T00:32:04.736Z,77.60
2019-05-25T00:32:40.342Z,77.80
2019-05-25T00:33:15.559Z,77.80
2019-05-25T00:33:51.028Z,77.90
2019-05-25T00:34:26.700Z,78.10
2019-05-25T00:35:03.054Z,78.10
2019-05-25T00:35:41.524Z,78.10
2019-05-25T00:36:17.170Z,78.30
2019-05-25T00:36:52.675Z,78.50
2019-05-25T00:37:28.096Z,78.50
2019-05-25T00:38:03.821Z,78.70
2019-05-25T00:38:39.654Z,78.80
2019-05-25T00:39:15.082Z,79.00
2019-05-25T00:39:50.710Z,79.20
2019-05-25T00:40:25.922Z,79.20
2019-05-25T00:41:01.654Z,79.30
2019-05-25T00:41:37.303Z,79.30
2019-05-25T00:42:12.491Z,79.50
2019-05-25T00:42:48.167Z,79.50
2019-05-25T00:43:24.022Z,79.60
2019-05-25T00:43:59.484Z,79.80
2019-05-25T00:44:35.398Z,79.80
2019-05-25T00:45:11.277Z,79.90
2019-05-25T00:45:46.477Z,80.00
2019-05-25T00:46:21.902Z,80.10
2019-05-25T00:46:57.539Z,80.20
2019-05-25T00:47:32.760Z,80.30
2019-05-25T00:48:08.434Z,80.50
2019-05-25T00:48:44.075Z,80.60
2019-05-25T00:49:19.289Z,80.60
2019-05-25T00:49:54.723Z,80.60
2019-05-25T00:50:30.339Z,80.60
2019-05-25T00:51:05.583Z,80.60
2019-05-25T00:51:41.290Z,80.70
2019-05-25T00:52:17.212Z,80.80
2019-05-25T00:52:52.426Z,81.00
2019-05-25T00:53:27.857Z,81.20
2019-05-25T00:54:03.594Z,81.20
2019-05-25T00:54:38.812Z,81.20
2019-05-25T00:55:15.345Z,81.40
2019-05-25T00:55:51.542Z,81.50
2019-05-25T00:56:26.766Z,82.40
2019-05-25T00:57:02.206Z,81.80
2019-05-25T00:57:38.167Z,81.90
2019-05-25T00:58:14.480Z,82.20
2019-05-25T00:58:49.917Z,82.10
2019-05-25T00:59:25.526Z,82.30
2019-05-25T01:00:00.746Z,82.40
2019-05-25T01:00:36.180Z,82.40
2019-05-25T01:01:12.222Z,82.50
2019-05-25T01:01:47.518Z,82.60
2019-05-25T01:02:22.944Z,82.70
2019-05-25T01:02:58.862Z,82.70
2019-05-25T01:03:34.414Z,82.80
2019-05-25T01:04:10.351Z,82.90
2019-05-25T01:04:45.995Z,83.00
2019-05-25T01:05:21.199Z,83.10
2019-05-25T01:05:56.613Z,83.20
2019-05-25T01:06:32.499Z,83.10
2019-05-25T01:07:07.810Z,83.20
2019-05-25T01:07:43.547Z,83.40
2019-05-25T01:08:19.438Z,83.70
2019-05-25T01:08:54.654Z,83.90
2019-05-25T01:09:30.087Z,83.90
2019-05-25T01:10:07.134Z,84.00
2019-05-25T01:10:42.663Z,84.10
2019-05-25T01:11:18.098Z,84.20
2019-05-25T01:11:54.052Z,84.40
2019-05-25T01:12:29.263Z,84.40
2019-05-25T01:13:04.864Z,84.40
2019-05-25T01:13:40.495Z,84.60
2019-05-25T01:14:15.702Z,84.80
2019-05-25T01:14:51.148Z,84.70
2019-05-25T01:15:26.790Z,84.80
2019-05-25T01:16:02.340Z,85.00
2019-05-25T01:16:38.079Z,85.10
2019-05-25T01:17:14.143Z,85.30
2019-05-25T01:17:49.358Z,85.40
2019-05-25T01:18:24.810Z,85.60
2019-05-25T01:19:00.498Z,85.60
2019-05-25T01:19:35.703Z,85.90
2019-05-25T01:20:11.134Z,86.10
2019-05-25T01:20:47.067Z,86.20
2019-05-25T01:21:22.266Z,86.40
2019-05-25T01:21:58.210Z,86.40
2019-05-25T01:22:33.819Z,86.50
2019-05-25T01:23:09.315Z,86.70
2019-05-25T01:23:45.732Z,86.80
2019-05-25T01:24:21.342Z,87.60
2019-05-25T01:24:56.604Z,86.80
2019-05-25T01:25:32.221Z,86.80
2019-05-25T01:26:08.111Z,86.70
2019-05-25T01:26:43.327Z,86.80
2019-05-25T01:27:19.047Z,87.00
2019-05-25T01:27:54.722Z,86.90
2019-05-25T01:28:30.423Z,87.10
2019-05-25T01:29:05.830Z,87.30
2019-05-25T01:29:41.438Z,87.30
2019-05-25T01:30:16.647Z,87.40
2019-05-25T01:30:52.105Z,87.50
2019-05-25T01:31:27.765Z,87.60
2019-05-25T01:32:03.060Z,87.80
2019-05-25T01:32:38.555Z,87.80
2019-05-25T01:33:15.174Z,88.00
2019-05-25T01:33:50.416Z,88.10
2019-05-25T01:34:25.838Z,88.10
2019-05-25T01:35:02.527Z,88.10
2019-05-25T01:35:38.086Z,88.20
2019-05-25T01:36:13.767Z,88.40
2019-05-25T01:36:49.366Z,88.50
2019-05-25T01:37:24.594Z,88.50
2019-05-25T01:38:00.111Z,88.50
2019-05-25T01:38:35.773Z,88.70
2019-05-25T01:39:11.622Z,88.70
2019-05-25T01:39:47.296Z,88.80
2019-05-25T01:40:22.883Z,88.80
2019-05-25T01:40:58.431Z,88.70
2019-05-25T01:41:33.885Z,88.80
2019-05-25T01:42:09.517Z,88.80
2019-05-25T01:42:44.738Z,88.80
2019-05-25T01:43:20.165Z,88.90
2019-05-25T01:43:55.779Z,89.00
2019-05-25T01:44:30.995Z,89.10
2019-05-25T01:45:06.452Z,89.30
2019-05-25T01:45:42.155Z,90.10
2019-05-25T01:46:17.366Z,89.60
2019-05-25T01:46:53.141Z,89.60
2019-05-25T01:47:28.815Z,89.70
2019-05-25T01:48:04.367Z,89.90
2019-05-25T01:48:39.802Z,89.90
2019-05-25T01:49:15.419Z,89.90
2019-05-25T01:49:52.250Z,90.00
2019-05-25T01:50:27.670Z,90.00
2019-05-25T01:51:03.449Z,90.00
2019-05-25T01:51:38.671Z,90.10
2019-05-25T01:52:14.137Z,90.10
2019-05-25T01:52:49.751Z,90.00
2019-05-25T01:53:24.951Z,90.00
2019-05-25T01:54:00.380Z,90.00
2019-05-25T01:54:36.242Z,90.00
2019-05-25T01:55:11.443Z,90.00
2019-05-25T01:55:47.131Z,90.00
2019-05-25T01:56:23.087Z,90.00
2019-05-25T01:56:58.607Z,90.00
2019-05-25T01:57:34.019Z,90.00
2019-05-25T01:58:09.904Z,90.00
2019-05-25T01:58:45.115Z,90.00
2019-05-25T01:59:20.541Z,90.10
2019-05-25T01:59:56.621Z,90.10
2019-05-25T02:00:31.823Z,90.10
2019-05-25T02:01:07.540Z,90.30
2019-05-25T02:01:43.152Z,90.60
2019-05-25T02:02:18.404Z,90.30
2019-05-25T02:02:53.889Z,90.30
2019-05-25T02:03:29.498Z,90.30
2019-05-25T02:04:04.788Z,90.30
2019-05-25T02:04:40.564Z,90.40
2019-05-25T02:05:16.352Z,90.30
2019-05-25T02:05:51.659Z,90.30
2019-05-25T02:06:27.119Z,90.30
2019-05-25T02:07:03.187Z,90.30
2019-05-25T02:07:38.745Z,90.30
2019-05-25T02:08:14.510Z,90.30
2019-05-25T02:08:50.122Z,90.30
2019-05-25T02:09:25.329Z,90.30
2019-05-25T02:10:00.759Z,90.30
2019-05-25T02:10:36.377Z,90.30
2019-05-25T02:11:11.604Z,90.70
2019-05-25T02:11:47.022Z,90.40
2019-05-25T02:12:22.716Z,90.50
2019-05-25T02:12:57.934Z,90.50
2019-05-25T02:13:33.358Z,90.50
2019-05-25T02:14:09.283Z,90.50
2019-05-25T02:14:44.486Z,90.50
2019-05-25T02:15:19.922Z,90.50
2019-05-25T02:15:55.537Z,90.60
2019-05-25T02:16:31.039Z,90.60
2019-05-25T02:17:06.463Z,90.60
2019-05-25T02:17:42.079Z,90.60
2019-05-25T02:18:17.282Z,90.70
2019-05-25T02:18:53.039Z,90.70
2019-05-25T02:19:28.995Z,90.70
2019-05-25T02:20:04.894Z,90.70
2019-05-25T02:20:40.335Z,90.70
2019-05-25T02:21:15.939Z,90.70
2019-05-25T02:21:51.217Z,90.70
2019-05-25T02:22:26.706Z,90.80
2019-05-25T02:23:02.578Z,90.80
2019-05-25T02:23:37.796Z,90.80
2019-05-25T02:24:13.593Z,90.80
2019-05-25T02:24:49.199Z,90.90
2019-05-25T02:25:24.656Z,90.90
2019-05-25T02:26:00.351Z,91.00
2019-05-25T02:26:35.953Z,90.90
2019-05-25T02:27:11.176Z,91.00
2019-05-25T02:27:46.723Z,91.00
2019-05-25T02:28:22.327Z,91.00
2019-05-25T02:28:57.551Z,91.10
2019-05-25T02:29:33.236Z,91.10
2019-05-25T02:30:09.341Z,91.20
2019-05-25T02:30:44.557Z,91.20
2019-05-25T02:31:20.007Z,91.20
2019-05-25T02:31:55.628Z,91.20
2019-05-25T02:32:30.847Z,91.30
2019-05-25T02:33:06.299Z,91.30
2019-05-25T02:33:42.210Z,91.40
2019-05-25T02:34:17.494Z,91.50
2019-05-25T02:34:52.950Z,91.50
2019-05-25T02:35:28.879Z,91.50
2019-05-25T02:36:04.166Z,91.50
2019-05-25T02:36:39.599Z,91.60
2019-05-25T02:37:15.211Z,91.60
2019-05-25T02:37:50.746Z,91.70
2019-05-25T02:38:26.242Z,91.70
2019-05-25T02:39:02.213Z,91.70
2019-05-25T02:39:37.605Z,91.70
2019-05-25T02:40:13.040Z,91.70
2019-05-25T02:40:49.648Z,91.80
2019-05-25T02:41:25.288Z,91.80
2019-05-25T02:42:01.032Z,91.80
2019-05-25T02:42:36.638Z,91.90
2019-05-25T02:43:12.186Z,91.80
2019-05-25T02:43:47.860Z,91.90
2019-05-25T02:44:23.502Z,91.90
2019-05-25T02:44:58.715Z,92.00
2019-05-25T02:45:34.495Z,92.00
2019-05-25T02:46:10.342Z,92.00
2019-05-25T02:46:45.895Z,92.10
2019-05-25T02:47:21.630Z,92.20
2019-05-25T02:47:57.246Z,92.10
2019-05-25T02:48:32.487Z,92.20
2019-05-25T02:49:07.915Z,92.30
2019-05-25T02:49:43.803Z,92.30
2019-05-25T02:50:19.621Z,92.30
2019-05-25T02:50:55.018Z,92.30
2019-05-25T02:51:30.630Z,92.30
2019-05-25T02:52:05.851Z,92.40
2019-05-25T02:52:41.291Z,92.30
2019-05-25T02:53:17.257Z,92.40
2019-05-25T02:53:52.707Z,92.40
2019-05-25T02:54:28.159Z,92.40
2019-05-25T02:55:04.173Z,92.40
2019-05-25T02:55:39.650Z,92.50
2019-05-25T02:56:15.086Z,92.50
2019-05-25T02:56:50.693Z,92.60
2019-05-25T02:57:25.902Z,92.60
2019-05-25T02:58:01.623Z,92.60
2019-05-25T02:58:37.231Z,92.60
2019-05-25T02:59:12.442Z,92.60
2019-05-25T02:59:47.871Z,92.60
2019-05-25T03:00:32.535Z,92.70
2019-05-25T03:01:07.826Z,92.70
2019-05-25T03:01:43.347Z,92.80
2019-05-25T03:02:19.339Z,92.80
2019-05-25T03:02:54.550Z,92.80
2019-05-25T03:03:29.991Z,92.90
2019-05-25T03:04:05.599Z,92.90
2019-05-25T03:04:40.873Z,93.00
2019-05-25T03:05:16.322Z,93.00
2019-05-25T03:05:51.942Z,93.10
2019-05-25T03:06:27.466Z,93.10
2019-05-25T03:07:03.062Z,93.10
2019-05-25T03:07:38.912Z,93.10
2019-05-25T03:08:14.155Z,93.20
2019-05-25T03:08:49.860Z,93.20
2019-05-25T03:09:25.486Z,93.20
2019-05-25T03:10:01.012Z,93.30
2019-05-25T03:10:37.011Z,93.30
2019-05-25T03:11:12.804Z,93.30
2019-05-25T03:11:48.440Z,93.30
2019-05-25T03:12:23.863Z,93.30
2019-05-25T03:13:01.117Z,93.30
2019-05-25T03:13:36.486Z,93.40
2019-05-25T03:14:11.935Z,93.40
2019-05-25T03:14:47.543Z,93.40
2019-05-25T03:15:22.747Z,93.40
2019-05-25T03:15:58.194Z,93.40
2019-05-25T03:16:34.154Z,93.40
2019-05-25T03:17:09.365Z,93.50
2019-05-25T03:17:44.815Z,93.50
2019-05-25T03:18:20.438Z,93.60
2019-05-25T03:18:55.654Z,93.60
2019-05-25T03:19:31.120Z,93.60
2019-05-25T03:20:06.787Z,93.60
2019-05-25T03:20:42.064Z,93.70
2019-05-25T03:21:17.501Z,93.70
2019-05-25T03:21:53.116Z,93.70
2019-05-25T03:22:28.569Z,93.70
2019-05-25T03:23:04.011Z,93.70
2019-05-25T03:23:39.901Z,93.70
2019-05-25T03:24:15.170Z,93.80
2019-05-25T03:24:50.591Z,93.80
2019-05-25T03:25:26.193Z,93.80
2019-05-25T03:26:01.475Z,93.90
2019-05-25T03:26:36.931Z,93.90
2019-05-25T03:27:12.550Z,93.90
2019-05-25T03:27:47.768Z,94.00
2019-05-25T03:28:23.211Z,94.00
2019-05-25T03:28:58.834Z,94.00
2019-05-25T03:29:34.065Z,94.10
2019-05-25T03:30:09.594Z,94.10
2019-05-25T03:30:45.289Z,94.20
2019-05-25T03:31:20.807Z,94.20
2019-05-25T03:31:56.793Z,94.20
2019-05-25T03:32:32.495Z,94.30
2019-05-25T03:33:07.729Z,94.30
2019-05-25T03:33:43.216Z,94.30
2019-05-25T03:34:18.835Z,94.30
2019-05-25T03:34:54.053Z,94.30
2019-05-25T03:35:29.501Z,94.40
2019-05-25T03:36:05.220Z,94.40
2019-05-25T03:36:40.440Z,94.50
2019-05-25T03:37:15.872Z,94.50
2019-05-25T03:37:51.483Z,94.50
2019-05-25T03:38:27.667Z,94.60
2019-05-25T03:39:04.738Z,94.60
2019-05-25T03:39:40.366Z,94.70
2019-05-25T03:40:15.616Z,94.70
2019-05-25T03:40:51.026Z,94.80
2019-05-25T03:41:26.647Z,94.80
2019-05-25T03:42:01.918Z,94.80
2019-05-25T03:42:37.359Z,94.90
2019-05-25T03:43:12.969Z,94.90
2019-05-25T03:43:48.182Z,94.90
2019-05-25T03:44:23.612Z,95.00
2019-05-25T03:44:59.222Z,95.00
2019-05-25T03:45:34.663Z,95.00
2019-05-25T03:46:10.703Z,95.00
2019-05-25T03:46:46.580Z,95.10
2019-05-25T03:47:21.791Z,95.10
2019-05-25T03:47:57.201Z,95.10
2019-05-25T03:48:33.164Z,95.20
2019-05-25T03:49:08.411Z,95.10
2019-05-25T03:49:43.838Z,95.20
2019-05-25T03:50:19.997Z,95.20
2019-05-25T03:50:55.220Z,95.30
2019-05-25T03:51:30.622Z,95.30
2019-05-25T03:52:06.234Z,95.30
2019-05-25T03:52:41.695Z,95.40
2019-05-25T03:53:17.401Z,95.40
2019-05-25T03:53:53.011Z,95.30
2019-05-25T03:54:28.559Z,95.40
2019-05-25T03:55:04.104Z,95.40
2019-05-25T03:55:39.768Z,95.40
2019-05-25T03:56:14.985Z,95.50
2019-05-25T03:56:50.698Z,95.50
2019-05-25T03:57:26.321Z,95.50
2019-05-25T03:58:01.726Z,95.50
2019-05-25T03:58:37.596Z,95.50
2019-05-25T03:59:13.507Z,95.50
2019-05-25T03:59:57.011Z,95.60
2019-05-25T04:00:37.379Z,95.60
2019-05-25T04:01:13.347Z,95.70
2019-05-25T04:01:48.964Z,95.70
2019-05-25T04:02:23.994Z,95.70
2019-05-25T04:02:59.614Z,95.80
2019-05-25T04:03:35.230Z,95.80
2019-05-25T04:04:10.337Z,96.10
2019-05-25T04:04:46.043Z,95.80
2019-05-25T04:05:21.650Z,95.80
2019-05-25T04:05:56.746Z,95.80
2019-05-25T04:06:32.459Z,95.80
2019-05-25T04:07:08.094Z,95.70
2019-05-25T04:07:43.417Z,95.80
2019-05-25T04:08:19.126Z,95.80
2019-05-25T04:08:54.758Z,95.70
2019-05-25T04:09:29.799Z,95.70
2019-05-25T04:10:05.536Z,95.80
2019-05-25T04:10:41.219Z,95.70
2019-05-25T04:11:16.612Z,95.70
2019-05-25T04:11:52.842Z,95.70
2019-05-25T04:12:28.454Z,95.70
2019-05-25T04:13:03.651Z,95.60
2019-05-25T04:13:39.271Z,95.60
2019-05-25T04:14:14.969Z,95.60
2019-05-25T04:14:50.003Z,95.60
2019-05-25T04:15:26.022Z,95.60
2019-05-25T04:16:02.771Z,95.60
2019-05-25T04:16:38.770Z,95.80
2019-05-25T04:17:14.452Z,95.60
2019-05-25T04:17:50.090Z,95.50
2019-05-25T04:18:25.124Z,95.60
2019-05-25T04:19:00.797Z,95.60
2019-05-25T04:19:36.784Z,95.80
2019-05-25T04:20:11.871Z,95.50
2019-05-25T04:20:47.563Z,95.50
2019-05-25T04:21:23.503Z,95.50
2019-05-25T04:21:58.548Z,95.60
2019-05-25T04:22:34.475Z,95.70
2019-05-25T04:23:10.113Z,95.60
2019-05-25T04:23:45.147Z,95.60
2019-05-25T04:24:20.811Z,95.60
2019-05-25T04:24:56.470Z,95.50
2019-05-25T04:25:31.593Z,95.60
2019-05-25T04:26:21.521Z,95.50
2019-05-25T04:26:44.964Z,95.60
2019-05-25T04:27:19.991Z,95.60
2019-05-25T04:27:55.627Z,95.60
2019-05-25T04:28:31.518Z,95.60
2019-05-25T04:29:06.546Z,95.60
2019-05-25T04:29:42.200Z,95.60
2019-05-25T04:30:18.147Z,95.60
2019-05-25T04:30:53.195Z,95.70
2019-05-25T04:31:29.205Z,95.60
2019-05-25T04:32:04.887Z,95.60
2019-05-25T04:32:39.932Z,95.60
2019-05-25T04:33:15.560Z,95.60
2019-05-25T04:33:51.630Z,95.60
2019-05-25T04:34:27.006Z,95.60
2019-05-25T04:35:02.991Z,95.50
2019-05-25T04:35:38.607Z,95.50
2019-05-25T04:36:13.665Z,95.50
2019-05-25T04:36:49.350Z,95.50
2019-05-25T04:37:25.034Z,95.50
2019-05-25T04:38:00.141Z,95.60
2019-05-25T04:38:37.581Z,95.60
2019-05-25T04:39:14.426Z,95.50
2019-05-25T04:39:49.550Z,95.50
2019-05-25T04:40:25.800Z,95.60
2019-05-25T04:41:01.439Z,95.60
2019-05-25T04:41:36.558Z,95.60
2019-05-25T04:42:12.232Z,95.60
2019-05-25T04:42:48.206Z,96.00
2019-05-25T04:43:23.258Z,95.60
2019-05-25T04:43:58.904Z,95.60
2019-05-25T04:44:34.639Z,95.60
2019-05-25T04:45:10.012Z,95.60
2019-05-25T04:45:45.698Z,95.60
2019-05-25T04:46:21.721Z,95.50
2019-05-25T04:46:57.015Z,95.50
2019-05-25T04:47:32.642Z,95.50
2019-05-25T04:48:08.264Z,95.40
2019-05-25T04:48:43.318Z,95.40
2019-05-25T04:49:18.940Z,95.40
2019-05-25T04:49:55.035Z,95.30
2019-05-25T04:50:30.323Z,95.30
2019-05-25T04:51:05.955Z,95.50
2019-05-25T04:51:41.562Z,95.30
2019-05-25T04:52:16.863Z,95.40
2019-05-25T04:52:52.546Z,95.40
2019-05-25T04:53:28.183Z,95.40
2019-05-25T04:54:03.562Z,95.30
2019-05-25T04:54:39.606Z,95.20
2019-05-25T04:55:16.682Z,95.20
2019-05-25T04:55:52.000Z,95.20
2019-05-25T04:56:38.892Z,95.20
2019-05-25T04:57:06.165Z,95.20
2019-05-25T04:57:41.455Z,95.40
2019-05-25T04:58:17.083Z,95.20
2019-05-25T04:58:53.073Z,95.20
2019-05-25T04:59:28.136Z,95.20
2019-05-25T05:00:03.991Z,95.20
2019-05-25T05:00:39.614Z,95.20
2019-05-25T05:01:14.680Z,95.60
2019-05-25T05:01:50.642Z,95.20
2019-05-25T05:02:26.532Z,95.30
2019-05-25T05:03:01.981Z,95.20
2019-05-25T05:03:37.894Z,95.20
2019-05-25T05:04:13.623Z,95.10
2019-05-25T05:04:48.691Z,95.10
2019-05-25T05:05:24.310Z,95.10
2019-05-25T05:05:59.943Z,95.10
2019-05-25T05:06:34.991Z,95.10
2019-05-25T05:07:10.615Z,95.00
2019-05-25T05:07:46.527Z,95.00
2019-05-25T05:08:21.935Z,95.00
2019-05-25T05:08:57.564Z,95.00
2019-05-25T05:09:33.193Z,94.90
2019-05-25T05:10:08.233Z,94.90
2019-05-25T05:10:44.566Z,94.90
2019-05-25T05:11:20.214Z,94.90
2019-05-25T05:11:55.278Z,94.90
2019-05-25T05:12:31.880Z,94.80
2019-05-25T05:13:07.502Z,94.80
2019-05-25T05:13:42.850Z,94.80
2019-05-25T05:14:18.514Z,94.80
2019-05-25T05:14:56.464Z,94.80
2019-05-25T05:15:30.886Z,94.70
2019-05-25T05:16:06.828Z,94.80
2019-05-25T05:16:42.437Z,94.70
2019-05-25T05:17:17.487Z,94.70
2019-05-25T05:17:53.123Z,94.80
2019-05-25T05:18:29.015Z,94.70
2019-05-25T05:19:04.353Z,94.70
2019-05-25T05:19:40.266Z,94.70
2019-05-25T05:20:16.376Z,94.90
2019-05-25T05:20:51.495Z,94.60
2019-05-25T05:21:27.108Z,94.60
2019-05-25T05:22:05.770Z,94.60
2019-05-25T05:22:39.598Z,94.70
2019-05-25T05:23:15.558Z,94.60
2019-05-25T05:23:51.186Z,94.60
2019-05-25T05:24:26.259Z,94.60
2019-05-25T05:25:02.040Z,94.60
2019-05-25T05:25:37.887Z,94.60
2019-05-25T05:26:12.987Z,94.60
2019-05-25T05:26:55.750Z,94.60
2019-05-25T05:27:27.270Z,94.60
2019-05-25T05:28:02.539Z,94.60
2019-05-25T05:28:39.171Z,94.60
2019-05-25T05:29:14.798Z,94.60
2019-05-25T05:29:50.133Z,94.60
2019-05-25T05:30:35.003Z,94.60
2019-05-25T05:31:22.833Z,94.60
2019-05-25T05:31:47.360Z,94.60
2019-05-25T05:32:27.448Z,94.60
2019-05-25T05:33:00.609Z,94.70
2019-05-25T05:33:35.896Z,94.60
2019-05-25T05:34:11.856Z,94.60
2019-05-25T05:34:47.739Z,94.70
2019-05-25T05:35:22.774Z,94.60
2019-05-25T05:35:58.836Z,94.60
2019-05-25T05:36:34.446Z,94.60
2019-05-25T05:37:09.565Z,94.60
2019-05-25T05:37:45.219Z,94.70
2019-05-25T05:38:21.158Z,94.60
2019-05-25T05:38:56.362Z,94.60
2019-05-25T05:39:32.287Z,94.60
2019-05-25T05:40:08.261Z,94.60
2019-05-25T05:40:43.370Z,94.60
2019-05-25T05:41:18.993Z,94.50
2019-05-25T05:41:55.460Z,94.50
2019-05-25T05:42:31.032Z,94.50
2019-05-25T05:43:10.557Z,94.50
2019-05-25T05:43:46.290Z,94.40
2019-05-25T05:44:22.165Z,94.50
2019-05-25T05:44:58.365Z,94.40
2019-05-25T05:45:33.967Z,94.50
2019-05-25T05:46:09.290Z,94.40
2019-05-25T05:46:44.907Z,94.40
2019-05-25T05:47:20.527Z,94.80
2019-05-25T05:47:55.562Z,94.50
2019-05-25T05:48:31.442Z,94.50
2019-05-25T05:49:07.797Z,94.50
2019-05-25T05:49:42.943Z,94.80
2019-05-25T05:50:18.569Z,94.40
2019-05-25T05:50:54.260Z,94.40
2019-05-25T05:51:29.359Z,94.40
2019-05-25T05:52:05.088Z,94.40
2019-05-25T05:52:40.958Z,94.40
2019-05-25T05:53:16.015Z,94.40
2019-05-25T05:53:55.750Z,94.40
2019-05-25T05:54:31.908Z,94.40
2019-05-25T05:55:09.090Z,94.40
2019-05-25T05:55:45.047Z,94.40
2019-05-25T05:56:20.659Z,94.40
2019-05-25T05:57:11.190Z,94.40
2019-05-25T05:57:33.049Z,94.40
2019-05-25T05:58:08.667Z,94.40
2019-05-25T05:58:43.758Z,94.30
2019-05-25T05:59:19.416Z,94.30
2019-05-25T05:59:55.075Z,94.30
2019-05-25T06:00:30.159Z,94.30
2019-05-25T06:01:05.834Z,94.30
2019-05-25T06:01:41.483Z,94.30
2019-05-25T06:02:16.854Z,94.30
2019-05-25T06:02:52.524Z,94.20
2019-05-25T06:03:28.147Z,94.30
2019-05-25T06:04:03.412Z,94.20
2019-05-25T06:04:39.295Z,94.30
2019-05-25T06:05:14.907Z,94.30
2019-05-25T06:05:49.951Z,94.30
2019-05-25T06:06:26.692Z,94.20
2019-05-25T06:07:02.848Z,94.20
2019-05-25T06:07:37.934Z,94.20
2019-05-25T06:08:13.539Z,94.20
2019-05-25T06:08:49.147Z,94.30
2019-05-25T06:09:24.245Z,94.30
2019-05-25T06:09:59.909Z,94.30
2019-05-25T06:10:35.531Z,94.30
2019-05-25T06:11:10.567Z,94.30
2019-05-25T06:11:46.626Z,94.30
2019-05-25T06:12:22.343Z,94.30
2019-05-25T06:12:57.379Z,94.30
2019-05-25T06:13:33.055Z,94.40
2019-05-25T06:14:08.675Z,94.30
2019-05-25T06:14:43.695Z,94.30
2019-05-25T06:15:19.881Z,94.30
2019-05-25T06:15:56.187Z,94.20
2019-05-25T06:16:31.311Z,94.20
2019-05-25T06:17:07.222Z,94.20
2019-05-25T06:17:42.876Z,94.10
2019-05-25T06:18:18.162Z,94.20
2019-05-25T06:18:53.784Z,94.10
2019-05-25T06:19:29.383Z,94.00
2019-05-25T06:20:05.492Z,94.00
2019-05-25T06:20:41.107Z,94.00
2019-05-25T06:21:16.707Z,94.00
2019-05-25T06:21:51.739Z,93.90
2019-05-25T06:22:27.363Z,93.90
2019-05-25T06:23:07.279Z,93.90
2019-05-25T06:23:40.078Z,93.90
2019-05-25T06:24:16.018Z,93.80
2019-05-25T06:24:51.962Z,93.80
2019-05-25T06:25:27.049Z,93.80
2019-05-25T06:26:02.663Z,93.80
2019-05-25T06:26:38.273Z,93.80
2019-05-25T06:27:26.345Z,93.70
2019-05-25T06:27:50.623Z,93.70
2019-05-25T06:28:26.272Z,93.70
2019-05-25T06:29:02.588Z,93.70
2019-05-25T06:29:38.268Z,93.60
2019-05-25T06:30:13.915Z,93.60
2019-05-25T06:30:48.974Z,93.60
2019-05-25T06:31:24.586Z,93.60
2019-05-25T06:32:00.289Z,93.50
2019-05-25T06:32:35.509Z,93.50
2019-05-25T06:33:11.215Z,93.50
2019-05-25T06:33:47.187Z,93.40
2019-05-25T06:34:22.237Z,93.40
2019-05-25T06:34:58.549Z,93.50
2019-05-25T06:35:34.184Z,93.50
2019-05-25T06:36:09.210Z,93.40
2019-05-25T06:36:45.149Z,93.40
2019-05-25T06:37:20.769Z,93.40
2019-05-25T06:37:55.839Z,93.30
2019-05-25T06:38:32.060Z,93.20
2019-05-25T06:39:08.390Z,93.20
2019-05-25T06:39:43.447Z,93.20
2019-05-25T06:40:19.078Z,93.10
2019-05-25T06:40:54.683Z,93.10
2019-05-25T06:41:30.083Z,93.00
2019-05-25T06:42:05.714Z,93.00
2019-05-25T06:42:41.360Z,92.90
2019-05-25T06:43:16.424Z,92.90
2019-05-25T06:43:52.143Z,92.80
2019-05-25T06:44:27.768Z,92.90
2019-05-25T06:45:02.935Z,92.90
2019-05-25T06:45:38.796Z,92.80
2019-05-25T06:46:14.412Z,92.80
2019-05-25T06:46:49.867Z,92.80
2019-05-25T06:47:25.622Z,92.80
2019-05-25T06:48:01.703Z,92.70
2019-05-25T06:48:36.983Z,92.70
2019-05-25T06:49:12.617Z,92.70
2019-05-25T06:49:48.335Z,92.60
2019-05-25T06:50:23.723Z,92.70
2019-05-25T06:50:59.600Z,92.60
2019-05-25T06:51:35.242Z,92.70
2019-05-25T06:52:10.655Z,92.70
2019-05-25T06:52:46.270Z,92.70
2019-05-25T06:53:21.911Z,92.70
2019-05-25T06:53:56.944Z,92.70
2019-05-25T06:54:32.566Z,92.70
2019-05-25T06:55:08.250Z,92.70
2019-05-25T06:55:43.884Z,92.60
2019-05-25T06:56:19.502Z,92.90
2019-05-25T06:56:55.747Z,92.60
2019-05-25T06:57:42.707Z,92.60
2019-05-25T06:58:08.452Z,92.60
2019-05-25T06:58:44.059Z,92.60
2019-05-25T06:59:19.210Z,92.50
2019-05-25T06:59:55.126Z,92.50
2019-05-25T07:00:30.749Z,92.50
2019-05-25T07:01:05.815Z,92.50
2019-05-25T07:01:41.738Z,92.50
2019-05-25T07:02:17.394Z,92.50
2019-05-25T07:02:52.432Z,92.50
2019-05-25T07:03:28.046Z,92.50
2019-05-25T07:04:04.018Z,92.40
2019-05-25T07:04:39.348Z,92.40
2019-05-25T07:05:14.976Z,92.30
2019-05-25T07:05:50.607Z,92.30
2019-05-25T07:06:25.700Z,92.20
2019-05-25T07:07:01.447Z,92.10
2019-05-25T07:07:37.125Z,92.00
2019-05-25T07:08:12.407Z,91.90
2019-05-25T07:08:48.033Z,91.80
2019-05-25T07:09:23.657Z,92.00
2019-05-25T07:09:58.935Z,91.60
2019-05-25T07:10:34.803Z,91.50
2019-05-25T07:11:10.698Z,91.40
2019-05-25T07:11:45.747Z,91.20
2019-05-25T07:12:21.638Z,91.20
2019-05-25T07:12:57.262Z,91.20
2019-05-25T07:13:32.302Z,91.10
2019-05-25T07:14:07.999Z,91.00
2019-05-25T07:14:43.662Z,90.90
2019-05-25T07:15:18.763Z,90.80
2019-05-25T07:15:54.615Z,90.70
2019-05-25T07:16:30.478Z,90.70
2019-05-25T07:17:05.514Z,90.70
2019-05-25T07:17:41.387Z,90.60
2019-05-25T07:18:17.343Z,90.50
2019-05-25T07:18:52.366Z,90.40
2019-05-25T07:19:27.987Z,90.30
2019-05-25T07:20:04.042Z,90.20
2019-05-25T07:20:39.084Z,90.10
2019-05-25T07:21:14.708Z,90.00
2019-05-25T07:21:50.310Z,89.80
2019-05-25T07:22:25.380Z,89.60
2019-05-25T07:23:00.991Z,89.50
2019-05-25T07:23:36.671Z,89.20
2019-05-25T07:24:11.730Z,89.10
2019-05-25T07:24:47.650Z,89.00
2019-05-25T07:25:23.579Z,88.70
2019-05-25T07:25:58.848Z,88.50
2019-05-25T07:26:34.841Z,88.20
2019-05-25T07:27:10.638Z,87.90
2019-05-25T07:27:58.308Z,87.70
2019-05-25T07:28:23.121Z,87.40
2019-05-25T07:28:58.866Z,87.20
2019-05-25T07:29:33.951Z,86.90
2019-05-25T07:30:10.015Z,86.50
2019-05-25T07:30:46.690Z,86.50
2019-05-25T07:31:21.940Z,86.00
2019-05-25T07:31:57.572Z,85.70
2019-05-25T07:32:33.333Z,85.50
2019-05-25T07:33:08.436Z,85.30
2019-05-25T07:33:44.371Z,85.00
2019-05-25T07:34:20.428Z,85.00
2019-05-25T07:34:55.861Z,84.40
2019-05-25T07:35:31.773Z,84.10
2019-05-25T07:36:08.138Z,83.90
2019-05-25T07:36:43.500Z,83.60
2019-05-25T07:37:19.115Z,83.40
2019-05-25T07:37:54.966Z,84.10
2019-05-25T07:38:30.226Z,83.10
2019-05-25T07:39:07.362Z,83.00